createdAt,value
2022-08-03T00:00:44.304Z,17.40
2022-08-03T00:03:13.591Z,17.35
2022-08-03T00:06:03.724Z,17.32
2022-08-03T00:08:32.027Z,17.47
2022-08-03T00:11:01.459Z,17.42
2022-08-03T00:13:32.100Z,17.43
2022-08-03T00:16:01.332Z,17.40
2022-08-03T00:18:30.519Z,17.32
2022-08-03T00:20:59.765Z,17.37
2022-08-03T00:23:50.914Z,17.22
2022-08-03T00:26:18.170Z,17.07
2022-08-03T00:28:49.047Z,17.07
2022-08-03T00:31:23.129Z,16.95
2022-08-03T00:34:07.942Z,16.90
2022-08-03T00:36:37.642Z,16.94
2022-08-03T00:39:06.866Z,17.06
2022-08-03T00:41:36.066Z,17.15
2022-08-03T00:44:06.862Z,17.16
2022-08-03T00:46:36.079Z,17.18
2022-08-03T00:49:05.372Z,17.07
2022-08-03T00:51:35.532Z,17.11
2022-08-03T00:54:04.893Z,16.88
2022-08-03T00:56:34.076Z,16.88
2022-08-03T00:59:04.635Z,16.98
2022-08-03T01:01:35.598Z,17.00
2022-08-03T01:04:05.160Z,16.90
2022-08-03T01:06:44.628Z,16.59
2022-08-03T01:09:23.765Z,16.53
2022-08-03T01:12:04.638Z,16.69
2022-08-03T01:14:40.209Z,16.57
2022-08-03T01:17:20.758Z,16.67
2022-08-03T01:19:59.438Z,16.50
2022-08-03T01:23:11.809Z,16.54
2022-08-03T01:26:01.318Z,16.59
2022-08-03T01:29:03.844Z,16.57
2022-08-03T01:32:53.304Z,16.50
2022-08-03T01:34:38.007Z,16.50
2022-08-03T01:37:12.131Z,16.43
2022-08-03T01:39:44.018Z,16.41
2022-08-03T01:42:15.397Z,16.46
2022-08-03T01:44:46.913Z,16.45
2022-08-03T01:47:21.241Z,16.45
2022-08-03T01:49:52.824Z,16.41
2022-08-03T01:52:23.622Z,16.49
2022-08-03T01:54:54.976Z,16.56
2022-08-03T01:57:26.622Z,16.56
2022-08-03T01:59:58.510Z,16.62
2022-08-03T02:02:34.074Z,16.75
2022-08-03T02:05:10.782Z,16.68
2022-08-03T02:07:43.688Z,16.61
2022-08-03T02:10:17.220Z,16.60
2022-08-03T02:13:08.667Z,16.60
2022-08-03T02:15:39.647Z,16.58
2022-08-03T02:18:11.523Z,16.68
2022-08-03T02:20:44.299Z,16.66
2022-08-03T02:23:14.011Z,16.56
2022-08-03T02:25:47.960Z,16.48
2022-08-03T02:28:21.682Z,16.42
2022-08-03T02:30:56.857Z,16.50
2022-08-03T02:33:32.917Z,16.56
2022-08-03T02:36:03.943Z,16.62
2022-08-03T02:38:37.340Z,16.65
2022-08-03T02:41:13.199Z,16.56
2022-08-03T02:44:06.696Z,16.36
2022-08-03T02:46:38.577Z,16.30
2022-08-03T02:49:40.929Z,16.32
2022-08-03T02:52:02.971Z,16.34
2022-08-03T02:54:33.949Z,16.44
2022-08-03T02:57:03.896Z,16.58
2022-08-03T02:59:34.795Z,16.64
2022-08-03T03:02:04.970Z,16.71
2022-08-03T03:04:36.864Z,16.72
2022-08-03T03:07:06.562Z,16.72
2022-08-03T03:09:41.640Z,16.75
2022-08-03T03:12:15.167Z,16.77
2022-08-03T03:14:44.605Z,16.70
2022-08-03T03:17:16.453Z,16.72
2022-08-03T03:19:48.414Z,16.71
2022-08-03T03:22:19.006Z,16.68
2022-08-03T03:24:49.862Z,16.64
2022-08-03T03:27:19.663Z,16.68
2022-08-03T03:29:51.278Z,16.70
2022-08-03T03:32:20.709Z,16.78
2022-08-03T03:34:52.154Z,16.82
2022-08-03T03:37:21.401Z,16.86
2022-08-03T03:39:50.892Z,16.87
2022-08-03T03:42:20.385Z,16.84
2022-08-03T03:44:49.545Z,16.75
2022-08-03T03:47:32.280Z,16.68
2022-08-03T03:50:05.140Z,16.94
2022-08-03T03:52:35.103Z,16.95
2022-08-03T03:55:04.539Z,16.81
2022-08-03T03:57:35.286Z,16.69
2022-08-03T04:00:06.225Z,16.77
2022-08-03T04:02:35.506Z,16.92
2022-08-03T04:05:25.161Z,16.97
2022-08-03T04:08:18.005Z,16.95
2022-08-03T04:11:01.721Z,17.04
2022-08-03T04:13:35.368Z,17.18
2022-08-03T04:16:09.203Z,17.20
2022-08-03T04:18:41.463Z,17.22
2022-08-03T04:21:16.388Z,17.26
2022-08-03T04:23:49.916Z,17.42
2022-08-03T04:26:23.396Z,17.44
2022-08-03T04:28:53.978Z,17.48
2022-08-03T04:31:25.682Z,17.55
2022-08-03T04:33:56.237Z,17.61
2022-08-03T04:36:32.597Z,17.65
2022-08-03T04:39:06.674Z,17.64
2022-08-03T04:42:06.936Z,17.69
2022-08-03T04:44:29.806Z,17.75
2022-08-03T04:47:00.814Z,17.86
2022-08-03T04:49:32.056Z,17.95
2022-08-03T04:52:03.000Z,17.95
2022-08-03T04:54:32.661Z,18.05
2022-08-03T04:57:01.932Z,18.24
2022-08-03T04:59:31.195Z,18.30
2022-08-03T05:02:00.508Z,18.48
2022-08-03T05:04:29.916Z,18.60
2022-08-03T05:06:59.330Z,18.72
2022-08-03T05:09:50.467Z,18.96
2022-08-03T05:12:21.772Z,19.14
2022-08-03T05:14:51.107Z,19.21
2022-08-03T05:17:20.733Z,19.25
2022-08-03T05:19:50.101Z,19.25
2022-08-03T05:22:19.389Z,19.32
2022-08-03T05:24:50.026Z,19.37
2022-08-03T05:27:20.301Z,19.43
2022-08-03T05:29:51.200Z,19.56
2022-08-03T05:32:20.993Z,19.68
2022-08-03T05:34:50.429Z,19.82
2022-08-03T05:37:19.665Z,19.81
2022-08-03T05:39:50.407Z,19.93
2022-08-03T05:42:19.551Z,20.09
2022-08-03T05:44:48.814Z,20.13
2022-08-03T05:47:18.192Z,20.18
2022-08-03T05:49:47.643Z,20.23
2022-08-03T05:52:17.018Z,20.28
2022-08-03T05:54:57.491Z,20.40
2022-08-03T05:57:28.479Z,20.51
2022-08-03T05:59:58.713Z,20.67
2022-08-03T06:02:28.639Z,20.74
2022-08-03T06:04:57.767Z,20.73
2022-08-03T06:07:27.080Z,20.82
2022-08-03T06:10:34.023Z,20.90
2022-08-03T06:12:49.423Z,21.02
2022-08-03T06:15:19.878Z,21.10
2022-08-03T06:17:50.001Z,21.17
2022-08-03T06:20:21.729Z,21.14
2022-08-03T06:23:00.279Z,21.31
2022-08-03T06:25:31.018Z,21.43
2022-08-03T06:28:01.570Z,21.51
2022-08-03T06:30:30.864Z,21.59
2022-08-03T06:32:59.993Z,21.75
2022-08-03T06:35:29.402Z,21.86
2022-08-03T06:37:58.719Z,21.93
2022-08-03T06:40:31.344Z,22.04
2022-08-03T06:43:04.150Z,22.24
2022-08-03T06:45:34.392Z,22.32
2022-08-03T06:48:06.231Z,22.47
2022-08-03T06:50:38.357Z,22.55
2022-08-03T06:53:09.129Z,22.71
2022-08-03T06:55:51.108Z,22.92
2022-08-03T06:58:24.838Z,23.11
2022-08-03T07:00:54.805Z,23.20
2022-08-03T07:03:26.069Z,23.29
2022-08-03T07:05:55.374Z,23.43
2022-08-03T07:08:34.232Z,23.64
2022-08-03T07:11:03.986Z,23.84
2022-08-03T07:13:35.054Z,23.99
2022-08-03T07:16:04.366Z,24.16
2022-08-03T07:18:33.489Z,24.31
2022-08-03T07:21:02.710Z,24.42
2022-08-03T07:23:32.081Z,24.45
2022-08-03T07:26:01.345Z,24.55
2022-08-03T07:28:30.729Z,24.67
2022-08-03T07:31:01.434Z,24.78
2022-08-03T07:33:30.782Z,24.83
2022-08-03T07:36:00.094Z,24.93
2022-08-03T07:38:30.050Z,25.05
2022-08-03T07:40:59.399Z,25.16
2022-08-03T07:43:28.890Z,25.19
2022-08-03T07:46:00.709Z,25.23
2022-08-03T07:48:31.477Z,25.25
2022-08-03T07:51:00.679Z,25.40
2022-08-03T07:53:29.935Z,25.43
2022-08-03T07:55:59.204Z,25.41
2022-08-03T07:58:29.903Z,25.51
2022-08-03T08:00:59.239Z,25.67
2022-08-03T08:03:28.466Z,25.74
2022-08-03T08:06:19.325Z,25.83
2022-08-03T08:08:48.839Z,25.96
2022-08-03T08:11:18.005Z,26.03
2022-08-03T08:13:47.217Z,26.00
2022-08-03T08:16:16.830Z,26.03
2022-08-03T08:18:46.005Z,26.14
2022-08-03T08:21:15.274Z,26.30
2022-08-03T08:23:51.779Z,26.36
2022-08-03T08:26:27.411Z,26.50
2022-08-03T08:28:56.949Z,26.64
2022-08-03T08:31:26.180Z,26.81
2022-08-03T08:34:04.310Z,26.91
2022-08-03T08:36:35.683Z,26.96
2022-08-03T08:39:06.476Z,27.07
2022-08-03T08:41:35.823Z,27.15
2022-08-03T08:44:08.307Z,27.26
2022-08-03T08:46:39.763Z,27.37
2022-08-03T08:49:12.304Z,27.46
2022-08-03T08:51:59.536Z,27.52
2022-08-03T08:54:34.176Z,27.68
2022-08-03T08:57:21.112Z,27.78
2022-08-03T08:59:57.442Z,27.97
2022-08-03T09:02:28.843Z,28.08
2022-08-03T09:04:59.836Z,28.12
2022-08-03T09:07:31.214Z,28.28
2022-08-03T09:10:11.182Z,28.20
2022-08-03T09:12:45.947Z,28.31
2022-08-03T09:15:21.404Z,28.37
2022-08-03T09:17:52.135Z,28.41
2022-08-03T09:20:22.725Z,28.52
2022-08-03T09:22:59.055Z,28.65
2022-08-03T09:25:31.907Z,28.64
2022-08-03T09:28:12.330Z,28.69
2022-08-03T09:30:44.163Z,28.73
2022-08-03T09:33:16.521Z,28.81
2022-08-03T09:35:54.054Z,29.00
2022-08-03T09:38:26.433Z,29.09
2022-08-03T09:41:00.946Z,29.09
2022-08-03T09:43:46.949Z,29.18
2022-08-03T09:46:16.234Z,29.35
2022-08-03T09:48:46.092Z,29.34
2022-08-03T09:52:31.285Z,29.46
2022-08-03T09:54:09.610Z,29.47
2022-08-03T09:56:48.542Z,28.97
2022-08-03T09:59:26.630Z,28.92
2022-08-03T10:01:56.885Z,29.10
2022-08-03T10:04:27.091Z,29.37
2022-08-03T10:07:08.389Z,29.56
2022-08-03T10:09:38.549Z,29.83
2022-08-03T10:12:14.633Z,30.10
2022-08-03T10:14:45.786Z,30.30
2022-08-03T10:17:15.495Z,30.43
2022-08-03T10:19:44.953Z,30.35
2022-08-03T10:22:16.826Z,30.34
2022-08-03T10:24:54.973Z,30.38
2022-08-03T10:27:26.393Z,30.45
2022-08-03T10:30:02.982Z,30.61
2022-08-03T10:32:36.080Z,30.69
2022-08-03T10:35:20.096Z,30.71
2022-08-03T10:37:59.204Z,30.72
2022-08-03T10:40:49.546Z,30.85
2022-08-03T10:43:24.202Z,30.98
2022-08-03T10:45:53.542Z,31.06
2022-08-03T10:48:23.627Z,31.24
2022-08-03T10:50:53.584Z,31.34
2022-08-03T10:53:37.452Z,31.40
2022-08-03T10:56:36.837Z,31.33
2022-08-03T10:59:28.003Z,31.38
2022-08-03T11:02:00.692Z,31.13
2022-08-03T11:04:30.923Z,30.89
2022-08-03T11:07:23.739Z,30.93
2022-08-03T11:09:54.929Z,31.30
2022-08-03T11:12:28.319Z,32.17
2022-08-03T11:15:08.899Z,33.09
2022-08-03T11:17:46.679Z,34.25
2022-08-03T11:20:47.539Z,34.53
2022-08-03T11:23:20.147Z,35.19
2022-08-03T11:26:21.370Z,35.41
2022-08-03T11:28:52.717Z,34.29
2022-08-03T11:31:51.919Z,35.12
2022-08-03T11:34:21.339Z,36.02
2022-08-03T11:37:26.367Z,36.64
2022-08-03T11:39:59.313Z,37.71
2022-08-03T11:42:50.839Z,38.29
2022-08-03T11:45:20.351Z,37.47
2022-08-03T11:47:55.109Z,37.60
2022-08-03T11:50:24.559Z,37.98
2022-08-03T11:52:53.986Z,38.55
2022-08-03T11:55:24.333Z,38.67
2022-08-03T11:59:18.754Z,37.80
2022-08-03T12:00:52.034Z,35.74
2022-08-03T12:03:22.874Z,34.74
2022-08-03T12:05:54.709Z,34.22
2022-08-03T12:08:35.104Z,34.28
2022-08-03T12:11:07.143Z,34.86
2022-08-03T12:14:45.435Z,35.72
2022-08-03T12:16:34.147Z,36.17
2022-08-03T12:19:08.260Z,36.15
2022-08-03T12:21:55.826Z,36.04
2022-08-03T12:24:29.584Z,36.54
2022-08-03T12:27:00.008Z,37.72
2022-08-03T12:29:29.599Z,37.90
2022-08-03T12:31:58.973Z,38.48
2022-08-03T12:34:50.992Z,38.80
2022-08-03T12:37:22.745Z,40.99
2022-08-03T12:40:00.879Z,41.58
2022-08-03T12:42:34.988Z,41.57
2022-08-03T12:45:23.351Z,41.45
2022-08-03T12:47:55.154Z,42.45
2022-08-03T12:50:34.957Z,42.75
2022-08-03T12:53:08.882Z,43.44
2022-08-03T12:56:04.710Z,44.69
2022-08-03T12:58:35.121Z,45.63
2022-08-03T13:01:10.115Z,45.23
2022-08-03T13:03:50.443Z,45.67
2022-08-03T13:06:26.600Z,46.76
2022-08-03T13:09:07.512Z,46.04
2022-08-03T13:11:55.798Z,45.07
2022-08-03T13:14:27.050Z,42.99
2022-08-03T13:16:56.347Z,41.06
2022-08-03T13:19:25.588Z,42.27
2022-08-03T13:22:03.943Z,42.93
2022-08-03T13:24:35.118Z,42.97
2022-08-03T13:28:01.698Z,41.93
2022-08-03T13:29:56.458Z,42.09
2022-08-03T13:32:25.704Z,41.79
2022-08-03T13:34:54.940Z,41.44
2022-08-03T13:37:26.249Z,41.02
2022-08-03T13:39:58.893Z,40.49
2022-08-03T13:42:31.564Z,40.52
2022-08-03T13:45:01.773Z,42.91
2022-08-03T13:47:31.234Z,45.56
2022-08-03T13:50:02.887Z,46.63
2022-08-03T13:52:36.232Z,46.67
2022-08-03T13:55:08.162Z,47.95
2022-08-03T13:58:03.396Z,48.43
2022-08-03T14:00:29.487Z,48.61
2022-08-03T14:03:09.258Z,48.58
2022-08-03T14:05:42.424Z,49.80
2022-08-03T14:08:13.427Z,50.19
2022-08-03T14:10:45.167Z,50.85
2022-08-03T14:13:16.838Z,50.18
2022-08-03T14:15:50.898Z,50.50
2022-08-03T14:18:29.323Z,51.14
2022-08-03T14:21:06.758Z,51.58
2022-08-03T14:23:38.795Z,51.04
2022-08-03T14:26:09.095Z,50.62
2022-08-03T14:28:38.330Z,48.23
2022-08-03T14:31:15.352Z,47.78
2022-08-03T14:33:57.384Z,47.48
2022-08-03T14:36:26.658Z,42.99
2022-08-03T14:39:01.168Z,44.39
2022-08-03T14:41:30.791Z,47.19
2022-08-03T14:44:01.658Z,47.34
2022-08-03T14:46:32.763Z,48.79
2022-08-03T14:50:38.328Z,50.03
2022-08-03T14:51:51.462Z,50.50
2022-08-03T14:54:24.824Z,50.06
2022-08-03T14:56:54.013Z,45.64
2022-08-03T14:59:23.222Z,46.96
2022-08-03T15:02:04.649Z,49.12
2022-08-03T15:04:37.408Z,50.60
2022-08-03T15:07:06.709Z,50.72
2022-08-03T15:09:38.667Z,50.88
2022-08-03T15:12:08.738Z,51.27
2022-08-03T15:14:38.031Z,51.25
2022-08-03T15:17:08.263Z,52.01
2022-08-03T15:20:01.174Z,52.02
2022-08-03T15:22:34.409Z,50.70
2022-08-03T15:26:28.283Z,50.64
2022-08-03T15:28:02.945Z,48.04
2022-08-03T15:30:37.062Z,49.01
2022-08-03T15:33:07.290Z,50.52
2022-08-03T15:35:36.956Z,50.72
2022-08-03T15:38:09.488Z,51.79
2022-08-03T15:40:40.450Z,51.30
2022-08-03T15:43:09.706Z,52.37
2022-08-03T15:45:41.948Z,52.63
2022-08-03T15:48:11.449Z,52.33
2022-08-03T15:50:41.064Z,53.09
2022-08-03T15:53:12.919Z,52.92
2022-08-03T15:55:44.873Z,52.81
2022-08-03T15:59:09.239Z,52.82
2022-08-03T16:01:06.800Z,51.97
2022-08-03T16:03:36.261Z,52.60
2022-08-03T16:06:07.550Z,52.57
2022-08-03T16:08:37.058Z,52.66
2022-08-03T16:11:07.697Z,52.10
2022-08-03T16:14:14.140Z,51.41
2022-08-03T16:16:26.158Z,51.90
2022-08-03T16:18:55.364Z,51.86
2022-08-03T16:21:25.613Z,51.56
2022-08-03T16:24:01.984Z,51.34
2022-08-03T16:26:36.988Z,50.92
2022-08-03T16:29:08.538Z,50.63
2022-08-03T16:31:52.915Z,51.02
2022-08-03T16:34:22.525Z,51.05
2022-08-03T16:36:51.992Z,51.09
2022-08-03T16:39:21.195Z,50.94
2022-08-03T16:41:54.291Z,48.06
2022-08-03T16:44:31.871Z,44.07
2022-08-03T16:47:01.358Z,42.97
2022-08-03T16:49:53.989Z,44.04
2022-08-03T16:52:20.035Z,44.87
2022-08-03T16:54:53.489Z,45.23
2022-08-03T16:57:59.384Z,44.99
2022-08-03T17:00:32.874Z,43.27
2022-08-03T17:03:18.676Z,42.05
2022-08-03T17:05:51.006Z,42.46
2022-08-03T17:08:26.507Z,42.15
2022-08-03T17:10:57.367Z,42.97
2022-08-03T17:13:39.510Z,43.11
2022-08-03T17:16:12.209Z,42.17
2022-08-03T17:18:54.129Z,39.91
2022-08-03T17:21:29.506Z,37.13
2022-08-03T17:24:04.799Z,35.18
2022-08-03T17:26:44.928Z,33.80
2022-08-03T17:29:23.153Z,32.86
2022-08-03T17:31:55.483Z,33.67
2022-08-03T17:34:26.523Z,35.06
2022-08-03T17:37:05.217Z,36.78
2022-08-03T17:39:57.683Z,37.88
2022-08-03T17:42:29.418Z,38.47
2022-08-03T17:45:03.541Z,37.17
2022-08-03T17:47:42.279Z,35.56
2022-08-03T17:50:24.875Z,34.53
2022-08-03T17:53:15.429Z,32.86
2022-08-03T17:56:36.162Z,31.54
2022-08-03T17:59:09.023Z,30.49
2022-08-03T18:02:22.322Z,29.83
2022-08-03T18:05:16.786Z,29.20
2022-08-03T18:07:59.071Z,28.86
2022-08-03T18:10:35.362Z,28.55
2022-08-03T18:13:10.798Z,28.08
2022-08-03T18:15:45.644Z,27.66
2022-08-03T18:18:29.305Z,27.36
2022-08-03T18:21:06.837Z,27.12
2022-08-03T18:23:40.408Z,26.85
2022-08-03T18:26:11.931Z,26.65
2022-08-03T18:28:43.300Z,26.40
2022-08-03T18:34:16.629Z,25.97
2022-08-03T18:36:57.224Z,25.77
2022-08-03T18:39:28.498Z,25.54
2022-08-03T18:41:59.532Z,25.38
2022-08-03T18:44:53.059Z,25.22
2022-08-03T18:47:53.155Z,25.20
2022-08-03T18:50:35.247Z,25.10
2022-08-03T18:53:19.700Z,24.88
2022-08-03T18:56:02.109Z,24.63
2022-08-03T18:58:42.293Z,24.36
2022-08-03T19:01:59.622Z,24.33
2022-08-03T19:04:16.884Z,24.12
2022-08-03T19:06:50.212Z,23.92
2022-08-03T19:09:33.022Z,23.74
2022-08-03T19:12:12.718Z,23.69
2022-08-03T19:15:05.314Z,23.33
2022-08-03T19:17:36.221Z,23.29
2022-08-03T19:20:10.392Z,23.38
2022-08-03T19:22:45.851Z,23.23
2022-08-03T19:25:15.259Z,23.32
2022-08-03T19:27:47.060Z,23.22
2022-08-03T19:30:32.726Z,23.06
2022-08-03T19:33:02.510Z,22.88
2022-08-03T19:35:51.322Z,22.64
2022-08-03T19:38:28.285Z,22.76
2022-08-03T19:41:02.285Z,22.65
2022-08-03T19:43:49.520Z,22.56
2022-08-03T19:46:30.250Z,22.26
2022-08-03T19:49:04.324Z,22.42
2022-08-03T19:52:01.797Z,21.92
2022-08-03T19:54:29.917Z,22.03
2022-08-03T19:57:04.788Z,21.91
2022-08-03T19:59:49.735Z,21.86
2022-08-03T20:02:27.047Z,21.55
2022-08-03T20:04:57.929Z,21.57
2022-08-03T20:07:32.398Z,21.58
2022-08-03T20:10:18.106Z,21.44
2022-08-03T20:12:49.130Z,21.41
2022-08-03T20:15:30.950Z,21.13
2022-08-03T20:18:01.618Z,20.99
2022-08-03T20:20:34.776Z,20.99
2022-08-03T20:23:12.436Z,20.98
2022-08-03T20:25:57.407Z,20.91
2022-08-03T20:28:33.480Z,20.80
2022-08-03T20:31:03.386Z,20.68
2022-08-03T20:33:45.759Z,20.93
2022-08-03T20:36:18.016Z,20.84
2022-08-03T20:38:48.449Z,20.70
2022-08-03T20:41:19.272Z,20.66
2022-08-03T20:43:49.783Z,20.60
2022-08-03T20:46:32.569Z,20.55
2022-08-03T20:49:08.034Z,20.39
2022-08-03T20:51:49.526Z,20.13
2022-08-03T20:54:31.088Z,20.01
2022-08-03T20:59:52.934Z,20.02
2022-08-03T21:02:29.531Z,20.06
2022-08-03T21:05:03.352Z,19.93
2022-08-03T21:08:04.301Z,19.83
2022-08-03T21:10:35.890Z,19.81
2022-08-03T21:13:04.063Z,26.27
2022-08-03T21:13:07.827Z,19.95
2022-08-03T21:13:18.204Z,19.73
2022-08-03T21:16:11.593Z,19.80
2022-08-03T21:18:46.863Z,19.77
2022-08-03T21:21:19.499Z,19.64
2022-08-03T21:23:53.291Z,19.69
2022-08-03T21:26:26.612Z,19.68
2022-08-03T21:29:14.201Z,19.52
2022-08-03T21:31:44.567Z,19.48
2022-08-03T21:34:13.796Z,19.55
2022-08-03T21:36:43.635Z,19.59
2022-08-03T21:39:13.730Z,19.53
2022-08-03T21:41:43.189Z,19.36
2022-08-03T21:44:14.017Z,19.48
2022-08-03T21:46:45.315Z,19.38
2022-08-03T21:50:05.609Z,19.28
2022-08-03T21:52:07.355Z,19.10
2022-08-03T21:54:39.001Z,19.05
2022-08-03T21:57:19.500Z,19.00
2022-08-03T21:59:55.294Z,18.90
2022-08-03T22:02:30.136Z,18.89
2022-08-03T22:05:04.893Z,18.86
2022-08-03T22:07:35.999Z,18.73
2022-08-03T22:10:08.318Z,18.65
2022-08-03T22:12:37.763Z,18.75
2022-08-03T22:15:12.045Z,18.74
2022-08-03T22:17:56.275Z,18.68
2022-08-03T22:20:27.096Z,18.61
2022-08-03T22:23:01.122Z,18.61
2022-08-03T22:25:35.015Z,18.49
2022-08-03T22:28:08.302Z,18.49
2022-08-03T22:30:40.503Z,18.56
2022-08-03T22:33:12.865Z,18.45
2022-08-03T22:35:48.094Z,18.49
2022-08-03T22:38:18.823Z,18.49
2022-08-03T22:40:51.235Z,18.32
2022-08-03T22:43:24.869Z,18.34
2022-08-03T22:46:09.715Z,18.22
2022-08-03T22:48:41.971Z,18.26
2022-08-03T22:51:12.032Z,18.15
2022-08-03T22:53:41.756Z,18.03
2022-08-03T22:56:12.129Z,17.99
2022-08-03T22:58:41.466Z,17.95
2022-08-03T23:01:14.319Z,18.03
2022-08-03T23:03:59.632Z,17.96
2022-08-03T23:06:36.412Z,17.94
2022-08-03T23:09:09.542Z,17.86
2022-08-03T23:11:42.856Z,17.83
2022-08-03T23:14:17.828Z,17.81
2022-08-03T23:16:49.014Z,17.62
2022-08-03T23:19:25.053Z,17.66
2022-08-03T23:22:02.432Z,17.77
2022-08-03T23:24:37.053Z,17.66
2022-08-03T23:27:09.247Z,17.61
2022-08-03T23:29:43.717Z,17.71
2022-08-03T23:32:15.423Z,17.65
2022-08-03T23:35:03.507Z,17.64
2022-08-03T23:37:33.512Z,17.39
2022-08-03T23:40:28.953Z,17.50
2022-08-03T23:42:59.400Z,17.65
2022-08-03T23:45:29.853Z,17.66
2022-08-03T23:48:00.442Z,17.55
2022-08-03T23:50:36.247Z,17.60
2022-08-03T23:53:13.377Z,17.51
2022-08-03T23:55:59.939Z,17.48
2022-08-03T23:58:53.452Z,17.40
